createdAt,value
2016-06-06T08:40:05.089Z,348
2016-06-06T08:40:09.902Z,343
2016-06-06T08:40:19.871Z,343
2016-06-06T08:40:29.871Z,348
2016-06-06T08:40:39.871Z,348
2016-06-06T08:40:49.886Z,348
2016-06-06T08:40:59.886Z,348
2016-06-06T08:41:09.905Z,348
2016-06-06T08:41:19.889Z,348
2016-06-06T08:41:29.905Z,348
2016-06-06T08:41:39.920Z,348
2016-06-06T08:41:49.920Z,343
2016-06-06T08:41:59.920Z,343
2016-06-06T08:42:09.923Z,343
2016-06-06T08:42:19.923Z,343
2016-06-06T08:42:29.955Z,348
2016-06-06T08:42:39.955Z,348
2016-06-06T08:42:49.955Z,348
2016-06-06T08:42:59.955Z,348
2016-06-06T08:43:09.989Z,348
2016-06-06T08:43:19.973Z,348
2016-06-06T08:43:29.817Z,354
2016-06-06T08:43:40.192Z,354
2016-06-06T08:43:50.005Z,343
2016-06-06T08:44:00.005Z,343
2016-06-06T08:44:09.850Z,337
2016-06-06T08:44:19.850Z,343
2016-06-06T08:44:30.241Z,343
2016-06-06T08:44:40.116Z,348
2016-06-06T08:44:50.632Z,354
2016-06-06T08:45:01.213Z,360
2016-06-06T08:45:10.041Z,365
2016-06-06T08:45:20.041Z,371
2016-06-06T08:45:30.041Z,376
2016-06-06T08:45:40.041Z,382
2016-06-06T08:45:50.056Z,393
2016-06-06T08:46:00.056Z,399
2016-06-06T08:46:10.058Z,405
2016-06-06T08:46:20.074Z,405
2016-06-06T08:46:30.074Z,410
2016-06-06T08:46:40.074Z,410
2016-06-06T08:46:50.074Z,410
2016-06-06T08:47:00.090Z,416
2016-06-06T08:47:10.093Z,410
2016-06-06T08:47:20.108Z,410
2016-06-06T08:47:30.108Z,405
2016-06-06T08:47:40.108Z,405
2016-06-06T08:47:50.108Z,405
2016-06-06T08:47:59.968Z,405
2016-06-06T08:48:10.127Z,393
2016-06-06T08:48:20.143Z,399
2016-06-06T08:48:30.143Z,388
2016-06-06T08:48:40.143Z,382
2016-06-06T08:48:50.143Z,376
2016-06-06T08:49:00.143Z,371
2016-06-06T08:49:10.161Z,365
2016-06-06T08:49:20.161Z,365
2016-06-06T08:49:30.161Z,360
2016-06-06T08:49:40.177Z,360
2016-06-06T08:49:50.177Z,360
2016-06-06T08:50:00.177Z,354
2016-06-06T08:50:10.194Z,354
2016-06-06T08:50:20.210Z,348
2016-06-06T08:50:30.054Z,343
2016-06-06T08:50:40.054Z,343
2016-06-06T08:50:50.460Z,343
2016-06-06T08:51:00.210Z,343
2016-06-06T08:51:10.229Z,343
2016-06-06T08:51:20.229Z,343
2016-06-06T08:51:30.244Z,343
2016-06-06T08:51:40.244Z,348
2016-06-06T08:51:50.244Z,348
2016-06-06T08:52:00.260Z,348
2016-06-06T08:52:10.279Z,348
2016-06-06T08:52:20.263Z,348
2016-06-06T08:52:30.279Z,348
2016-06-06T08:52:40.122Z,354
2016-06-06T08:52:50.138Z,354
2016-06-06T08:53:00.279Z,360
2016-06-06T08:53:10.296Z,360
2016-06-06T08:53:20.296Z,360
2016-06-06T08:53:30.312Z,365
2016-06-06T08:53:40.312Z,360
2016-06-06T08:53:50.312Z,360
2016-06-06T08:54:00.312Z,360
2016-06-06T08:54:10.330Z,360
2016-06-06T08:54:20.346Z,360
2016-06-06T08:54:30.330Z,360
2016-06-06T08:54:40.346Z,348
2016-06-06T08:54:50.190Z,343
2016-06-06T08:55:00.346Z,331
2016-06-06T08:55:10.349Z,320
2016-06-06T08:55:20.365Z,315
2016-06-06T08:55:30.365Z,309
2016-06-06T08:55:40.380Z,303
2016-06-06T08:55:50.380Z,298
2016-06-06T08:56:00.396Z,292
2016-06-06T08:56:10.398Z,292
2016-06-06T08:56:20.398Z,292
2016-06-06T08:56:30.398Z,286
2016-06-06T08:56:40.414Z,286
2016-06-06T08:56:50.414Z,281
2016-06-06T08:57:00.414Z,275
2016-06-06T08:57:10.417Z,275
2016-06-06T08:57:20.448Z,270
2016-06-06T08:57:30.432Z,270
2016-06-06T08:57:40.432Z,275
2016-06-06T08:57:50.463Z,264
2016-06-06T08:58:00.463Z,264
2016-06-06T08:58:10.450Z,258
2016-06-06T08:58:20.465Z,253
2016-06-06T08:58:30.465Z,247
2016-06-06T08:58:40.544Z,247
2016-06-06T08:58:50.340Z,241
2016-06-06T08:59:00.340Z,247
2016-06-06T08:59:11.157Z,247
2016-06-06T08:59:21.657Z,247
2016-06-06T08:59:30.657Z,253
2016-06-06T08:59:40.641Z,253
2016-06-06T08:59:51.063Z,258
2016-06-06T09:00:00.844Z,258
2016-06-06T09:00:10.831Z,258
2016-06-06T09:00:20.534Z,258
2016-06-06T09:00:30.534Z,253
2016-06-06T09:00:40.534Z,253
2016-06-06T09:00:50.565Z,253
2016-06-06T09:01:00.550Z,253
2016-06-06T09:01:10.568Z,253
2016-06-06T09:01:20.568Z,253
2016-06-06T09:01:30.584Z,247
2016-06-06T09:01:40.568Z,247
2016-06-06T09:01:50.584Z,247
2016-06-06T09:02:00.584Z,247
2016-06-06T09:02:10.602Z,247
2016-06-06T09:02:20.446Z,247
2016-06-06T09:02:30.602Z,253
2016-06-06T09:02:40.618Z,247
2016-06-06T09:02:50.462Z,247
2016-06-06T09:03:00.634Z,247
2016-06-06T09:03:10.636Z,241
2016-06-06T09:03:20.636Z,236
2016-06-06T09:03:30.651Z,230
2016-06-06T09:03:40.636Z,225
2016-06-06T09:03:50.651Z,225
2016-06-06T09:04:00.651Z,219
2016-06-06T09:04:10.670Z,213
2016-06-06T09:04:20.670Z,213
2016-06-06T09:04:30.670Z,208
2016-06-06T09:04:40.686Z,208
2016-06-06T09:04:50.686Z,208
2016-06-06T09:05:00.686Z,208
2016-06-06T09:05:10.689Z,208
2016-06-06T09:05:20.720Z,208
2016-06-06T09:05:30.564Z,202
2016-06-06T09:05:40.720Z,202
2016-06-06T09:05:50.720Z,202
2016-06-06T09:06:00.720Z,202
2016-06-06T09:06:10.722Z,202
2016-06-06T09:06:20.753Z,208
2016-06-06T09:06:30.737Z,202
2016-06-06T09:06:40.753Z,202
2016-06-06T09:06:50.753Z,202
2016-06-06T09:07:00.753Z,202
2016-06-06T09:07:10.756Z,196
2016-06-06T09:07:20.756Z,196
2016-06-06T09:07:30.772Z,196
2016-06-06T09:07:40.787Z,196
2016-06-06T09:07:50.787Z,196
2016-06-06T09:08:00.631Z,196
2016-06-06T09:08:10.789Z,196
2016-06-06T09:08:20.805Z,196
2016-06-06T09:08:30.805Z,196
2016-06-06T09:08:40.805Z,196
2016-06-06T09:08:50.821Z,196
2016-06-06T09:09:00.821Z,196
2016-06-06T09:09:10.840Z,196
2016-06-06T09:09:20.825Z,196
2016-06-06T09:09:30.840Z,191
2016-06-06T09:09:40.840Z,191
2016-06-06T09:09:50.856Z,191
2016-06-06T09:10:00.887Z,191
2016-06-06T09:10:10.858Z,191
2016-06-06T09:10:20.873Z,191
2016-06-06T09:10:30.873Z,191
2016-06-06T09:10:40.873Z,191
2016-06-06T09:10:50.873Z,191
2016-06-06T09:11:00.889Z,191
2016-06-06T09:11:10.908Z,191
2016-06-06T09:11:20.908Z,191
2016-06-06T09:11:30.908Z,191
2016-06-06T09:11:40.908Z,191
2016-06-06T09:11:50.908Z,191
2016-06-06T09:12:00.923Z,191
2016-06-06T09:12:10.926Z,191
2016-06-06T09:12:20.926Z,191
2016-06-06T09:12:30.942Z,191
2016-06-06T09:12:40.942Z,191
2016-06-06T09:12:50.942Z,191
2016-06-06T09:13:00.942Z,191
2016-06-06T09:13:10.960Z,191
2016-06-06T09:13:20.960Z,191
2016-06-06T09:13:31.194Z,191
2016-06-06T09:13:41.413Z,191
2016-06-06T09:13:51.397Z,191
2016-06-06T09:14:01.006Z,191
2016-06-06T09:14:11.197Z,191
2016-06-06T09:14:21.009Z,191
2016-06-06T09:14:31.009Z,191
2016-06-06T09:14:41.650Z,191
2016-06-06T09:14:51.681Z,191
2016-06-06T09:15:01.041Z,191
2016-06-06T09:15:11.027Z,191
2016-06-06T09:15:21.027Z,191
2016-06-06T09:15:31.027Z,191
2016-06-06T09:15:41.043Z,191
2016-06-06T09:15:51.058Z,196
2016-06-06T09:16:01.058Z,196
2016-06-06T09:16:11.061Z,196
2016-06-06T09:16:21.061Z,196
2016-06-06T09:16:31.061Z,196
2016-06-06T09:16:41.077Z,196
2016-06-06T09:16:51.077Z,196
2016-06-06T09:17:01.077Z,196
2016-06-06T09:17:11.096Z,196
2016-06-06T09:17:21.096Z,196
2016-06-06T09:17:31.096Z,196
2016-06-06T09:17:41.111Z,196
2016-06-06T09:17:51.111Z,196
2016-06-06T09:18:01.111Z,196
2016-06-06T09:18:11.145Z,196
2016-06-06T09:18:21.130Z,196
2016-06-06T09:18:30.833Z,196
2016-06-06T09:18:41.145Z,196
2016-06-06T09:18:50.989Z,196
2016-06-06T09:19:01.145Z,196
2016-06-06T09:19:11.163Z,196
2016-06-06T09:19:21.163Z,196
2016-06-06T09:19:31.179Z,196
2016-06-06T09:19:41.179Z,196
2016-06-06T09:19:51.179Z,196
2016-06-06T09:20:01.179Z,196
2016-06-06T09:20:11.213Z,196
2016-06-06T09:20:21.197Z,202
2016-06-06T09:20:31.213Z,202
2016-06-06T09:20:41.197Z,202
2016-06-06T09:20:51.213Z,202
2016-06-06T09:21:01.213Z,202
2016-06-06T09:21:11.232Z,202
2016-06-06T09:21:21.232Z,202
2016-06-06T09:21:31.232Z,202
2016-06-06T09:21:41.232Z,202
2016-06-06T09:21:51.232Z,202
2016-06-06T09:22:01.247Z,202
2016-06-06T09:22:11.249Z,202
2016-06-06T09:22:21.249Z,202
2016-06-06T09:22:31.265Z,202
2016-06-06T09:22:41.265Z,202
2016-06-06T09:22:51.265Z,202
2016-06-06T09:23:01.280Z,202
2016-06-06T09:23:11.283Z,208
2016-06-06T09:23:21.299Z,208
2016-06-06T09:23:31.299Z,208
2016-06-06T09:23:41.299Z,208
2016-06-06T09:23:51.315Z,208
2016-06-06T09:24:01.315Z,208
2016-06-06T09:24:11.318Z,208
2016-06-06T09:24:21.333Z,208
2016-06-06T09:24:31.349Z,208
2016-06-06T09:24:41.193Z,208
2016-06-06T09:24:51.193Z,208
2016-06-06T09:25:01.349Z,208
2016-06-06T09:25:11.351Z,208
2016-06-06T09:25:21.351Z,208
2016-06-06T09:25:31.382Z,208
2016-06-06T09:25:41.226Z,208
2016-06-06T09:25:51.226Z,213
2016-06-06T09:26:01.398Z,213
2016-06-06T09:26:11.401Z,213
2016-06-06T09:26:21.385Z,213
2016-06-06T09:26:31.401Z,213
2016-06-06T09:26:41.401Z,213
2016-06-06T09:26:51.401Z,213
2016-06-06T09:27:01.416Z,213
2016-06-06T09:27:11.419Z,213
2016-06-06T09:27:21.279Z,213
2016-06-06T09:27:31.419Z,213
2016-06-06T09:27:41.435Z,213
2016-06-06T09:27:51.451Z,213
2016-06-06T09:28:01.294Z,213
2016-06-06T09:28:11.469Z,213
2016-06-06T09:28:21.454Z,213
2016-06-06T09:28:31.469Z,213
2016-06-06T09:28:41.469Z,213
2016-06-06T09:28:51.469Z,213
2016-06-06T09:29:01.485Z,213
2016-06-06T09:29:12.049Z,213
2016-06-06T09:29:21.503Z,219
2016-06-06T09:29:31.503Z,213
2016-06-06T09:29:41.518Z,213
2016-06-06T09:29:51.612Z,213
2016-06-06T09:30:02.159Z,213
2016-06-06T09:30:11.521Z,213
2016-06-06T09:30:21.521Z,219
2016-06-06T09:30:31.381Z,219
2016-06-06T09:30:41.537Z,219
2016-06-06T09:30:51.537Z,219
2016-06-06T09:31:01.552Z,219
2016-06-06T09:31:11.398Z,219
2016-06-06T09:31:21.570Z,219
2016-06-06T09:31:31.554Z,219
2016-06-06T09:31:41.414Z,219
2016-06-06T09:31:51.570Z,219
2016-06-06T09:32:01.586Z,219
2016-06-06T09:32:11.589Z,219
2016-06-06T09:32:21.589Z,219
2016-06-06T09:32:31.589Z,219
2016-06-06T09:32:41.604Z,213
2016-06-06T09:32:51.604Z,213
2016-06-06T09:33:01.604Z,213
2016-06-06T09:33:11.639Z,213
2016-06-06T09:33:21.623Z,213
2016-06-06T09:33:31.623Z,213
2016-06-06T09:33:41.623Z,213
2016-06-06T09:33:51.639Z,213
2016-06-06T09:34:01.639Z,213
2016-06-06T09:34:11.657Z,213
2016-06-06T09:34:21.688Z,213
2016-06-06T09:34:31.657Z,213
2016-06-06T09:34:41.657Z,213
2016-06-06T09:34:51.673Z,213
2016-06-06T09:35:01.688Z,219
2016-06-06T09:35:11.691Z,219
2016-06-06T09:35:21.707Z,219
2016-06-06T09:35:31.691Z,219
2016-06-06T09:35:41.707Z,219
2016-06-06T09:35:51.707Z,219
2016-06-06T09:36:01.723Z,219
2016-06-06T09:36:11.725Z,219
2016-06-06T09:36:21.725Z,219
2016-06-06T09:36:31.772Z,219
2016-06-06T09:36:41.756Z,219
2016-06-06T09:36:51.740Z,219
2016-06-06T09:37:01.740Z,219
2016-06-06T09:37:11.603Z,219
2016-06-06T09:37:21.759Z,219
2016-06-06T09:37:31.759Z,219
2016-06-06T09:37:41.759Z,219
2016-06-06T09:37:51.603Z,219
2016-06-06T09:38:01.775Z,219
2016-06-06T09:38:11.792Z,219
2016-06-06T09:38:21.777Z,219
2016-06-06T09:38:31.777Z,219
2016-06-06T09:38:41.792Z,219
2016-06-06T09:38:51.792Z,219
2016-06-06T09:39:01.808Z,219
2016-06-06T09:39:11.842Z,219
2016-06-06T09:39:21.826Z,219
2016-06-06T09:39:31.826Z,219
2016-06-06T09:39:41.826Z,219
2016-06-06T09:39:51.826Z,219
2016-06-06T09:40:01.842Z,219
2016-06-06T09:40:11.861Z,219
2016-06-06T09:40:21.845Z,219
2016-06-06T09:40:31.876Z,219
2016-06-06T09:40:41.861Z,219
2016-06-06T09:40:51.861Z,219
2016-06-06T09:41:01.861Z,219
2016-06-06T09:41:11.895Z,219
2016-06-06T09:41:21.879Z,225
2016-06-06T09:41:31.911Z,225
2016-06-06T09:41:41.895Z,225
2016-06-06T09:41:51.739Z,225
2016-06-06T09:42:01.895Z,225
2016-06-06T09:42:11.913Z,225
2016-06-06T09:42:21.772Z,225
2016-06-06T09:42:31.928Z,225
2016-06-06T09:42:41.928Z,225
2016-06-06T09:42:51.928Z,225
2016-06-06T09:43:01.944Z,225
2016-06-06T09:43:11.947Z,225
2016-06-06T09:43:21.947Z,225
2016-06-06T09:43:31.947Z,225
2016-06-06T09:43:42.447Z,225
2016-06-06T09:43:51.962Z,225
2016-06-06T09:44:02.462Z,230
2016-06-06T09:44:12.605Z,230
2016-06-06T09:44:22.011Z,230
2016-06-06T09:44:31.996Z,230
2016-06-06T09:44:41.855Z,230
2016-06-06T09:44:52.386Z,230
2016-06-06T09:45:02.277Z,230
2016-06-06T09:45:12.015Z,230
2016-06-06T09:45:21.890Z,230
2016-06-06T09:45:32.015Z,230
2016-06-06T09:45:42.015Z,230
2016-06-06T09:45:52.062Z,230
2016-06-06T09:46:02.062Z,230
2016-06-06T09:46:12.033Z,230
2016-06-06T09:46:21.892Z,230
2016-06-06T09:46:32.049Z,230
2016-06-06T09:46:42.049Z,230
2016-06-06T09:46:52.064Z,230
2016-06-06T09:47:02.064Z,230
2016-06-06T09:47:12.067Z,230
2016-06-06T09:47:22.083Z,230
2016-06-06T09:47:32.083Z,230
2016-06-06T09:47:42.098Z,230
2016-06-06T09:47:51.958Z,230
2016-06-06T09:48:02.098Z,230
2016-06-06T09:48:12.116Z,230
2016-06-06T09:48:21.804Z,230
2016-06-06T09:48:31.975Z,230
2016-06-06T09:48:41.975Z,230
2016-06-06T09:48:52.132Z,230
2016-06-06T09:49:02.132Z,230
2016-06-06T09:49:12.135Z,230
2016-06-06T09:49:22.150Z,230
2016-06-06T09:49:32.150Z,236
2016-06-06T09:49:42.166Z,236
2016-06-06T09:49:52.150Z,236
2016-06-06T09:50:02.166Z,236
2016-06-06T09:50:12.168Z,236
2016-06-06T09:50:22.184Z,236
2016-06-06T09:50:32.184Z,236
2016-06-06T09:50:42.184Z,236
2016-06-06T09:50:52.184Z,236
2016-06-06T09:51:02.199Z,230
2016-06-06T09:51:12.202Z,236
2016-06-06T09:51:22.202Z,236
2016-06-06T09:51:32.218Z,236
2016-06-06T09:51:42.218Z,236
2016-06-06T09:51:52.233Z,236
2016-06-06T09:52:02.218Z,236
2016-06-06T09:52:12.252Z,236
2016-06-06T09:52:22.236Z,241
2016-06-06T09:52:32.252Z,236
2016-06-06T09:52:42.252Z,236
2016-06-06T09:52:52.143Z,236
2016-06-06T09:53:02.252Z,236
2016-06-06T09:53:12.302Z,236
2016-06-06T09:53:22.271Z,236
2016-06-06T09:53:32.286Z,236
2016-06-06T09:53:42.286Z,236
2016-06-06T09:53:52.286Z,236
2016-06-06T09:54:02.146Z,236
2016-06-06T09:54:12.336Z,236
2016-06-06T09:54:22.321Z,236
2016-06-06T09:54:32.352Z,236
2016-06-06T09:54:42.321Z,236
2016-06-06T09:54:52.321Z,236
2016-06-06T09:55:02.321Z,241
2016-06-06T09:55:12.354Z,241
2016-06-06T09:55:22.338Z,241
2016-06-06T09:55:32.338Z,241
2016-06-06T09:55:42.354Z,241
2016-06-06T09:55:52.354Z,241
2016-06-06T09:56:02.213Z,241
2016-06-06T09:56:12.372Z,241
2016-06-06T09:56:22.372Z,241
2016-06-06T09:56:32.372Z,241
2016-06-06T09:56:42.388Z,247
2016-06-06T09:56:52.232Z,247
2016-06-06T09:57:02.404Z,241
2016-06-06T09:57:12.422Z,241
2016-06-06T09:57:22.407Z,241
2016-06-06T09:57:32.422Z,247
2016-06-06T09:57:42.422Z,241
2016-06-06T09:57:52.422Z,241
2016-06-06T09:58:02.422Z,241
2016-06-06T09:58:12.440Z,247
2016-06-06T09:58:22.440Z,247
2016-06-06T09:58:32.456Z,247
2016-06-06T09:58:42.456Z,247
2016-06-06T09:58:52.456Z,247
2016-06-06T09:59:02.471Z,247
2016-06-06T09:59:12.896Z,247
2016-06-06T09:59:22.334Z,253
2016-06-06T09:59:32.443Z,253
2016-06-06T09:59:43.084Z,253
2016-06-06T09:59:53.834Z,253
2016-06-06T10:00:02.537Z,253
2016-06-06T10:00:12.508Z,253
2016-06-06T10:00:22.524Z,253
2016-06-06T10:00:32.508Z,253
2016-06-06T10:00:42.524Z,258
2016-06-06T10:00:52.555Z,258
2016-06-06T10:01:02.524Z,258
2016-06-06T10:01:12.543Z,258
2016-06-06T10:01:22.574Z,258
2016-06-06T10:01:32.543Z,258
2016-06-06T10:01:42.402Z,258
2016-06-06T10:01:52.558Z,258
2016-06-06T10:02:02.558Z,258
2016-06-06T10:02:12.576Z,258
2016-06-06T10:02:22.576Z,258
2016-06-06T10:02:32.451Z,258
2016-06-06T10:02:42.576Z,258
2016-06-06T10:02:52.607Z,258
2016-06-06T10:03:02.592Z,264
2016-06-06T10:03:12.610Z,258
2016-06-06T10:03:22.610Z,258
2016-06-06T10:03:32.610Z,264
2016-06-06T10:03:42.626Z,258
2016-06-06T10:03:52.470Z,264
2016-06-06T10:04:02.626Z,264
2016-06-06T10:04:12.643Z,264
2016-06-06T10:04:22.628Z,264
2016-06-06T10:04:32.643Z,264
2016-06-06T10:04:42.643Z,264
2016-06-06T10:04:52.503Z,264
2016-06-06T10:05:02.659Z,264
2016-06-06T10:05:12.521Z,264
2016-06-06T10:05:22.662Z,264
2016-06-06T10:05:32.693Z,264
2016-06-06T10:05:42.725Z,258
2016-06-06T10:05:52.537Z,258
2016-06-06T10:06:02.709Z,258
2016-06-06T10:06:12.712Z,258
2016-06-06T10:06:22.712Z,258
2016-06-06T10:06:32.712Z,264
2016-06-06T10:06:42.712Z,264
2016-06-06T10:06:52.712Z,264
2016-06-06T10:07:02.728Z,264
2016-06-06T10:07:12.746Z,264
2016-06-06T10:07:22.746Z,264
2016-06-06T10:07:32.762Z,264
2016-06-06T10:07:42.606Z,264
2016-06-06T10:07:52.762Z,264
2016-06-06T10:08:02.762Z,264
2016-06-06T10:08:12.779Z,264
2016-06-06T10:08:22.779Z,264
2016-06-06T10:08:32.779Z,264
2016-06-06T10:08:42.779Z,264
2016-06-06T10:08:52.779Z,264
2016-06-06T10:09:02.795Z,264
2016-06-06T10:09:12.798Z,264
2016-06-06T10:09:22.798Z,264
2016-06-06T10:09:32.814Z,264
2016-06-06T10:09:42.829Z,264
2016-06-06T10:09:52.814Z,264
2016-06-06T10:10:02.829Z,264
2016-06-06T10:10:12.831Z,264
2016-06-06T10:10:22.831Z,264
2016-06-06T10:10:32.847Z,264
2016-06-06T10:10:42.847Z,264
2016-06-06T10:10:52.847Z,264
2016-06-06T10:11:02.863Z,270
2016-06-06T10:11:12.710Z,270
2016-06-06T10:11:22.867Z,264
2016-06-06T10:11:32.882Z,264
2016-06-06T10:11:42.882Z,264
2016-06-06T10:11:52.898Z,264
2016-06-06T10:12:02.898Z,264
2016-06-06T10:12:12.900Z,264
2016-06-06T10:12:22.915Z,264
2016-06-06T10:12:32.915Z,264
2016-06-06T10:12:42.759Z,264
2016-06-06T10:12:52.915Z,264
2016-06-06T10:13:02.931Z,258
2016-06-06T10:13:12.933Z,258
2016-06-06T10:13:22.933Z,258
2016-06-06T10:13:32.949Z,258
2016-06-06T10:13:42.949Z,258
2016-06-06T10:13:52.964Z,258
2016-06-06T10:14:03.355Z,258
2016-06-06T10:14:13.578Z,258
2016-06-06T10:14:22.921Z,258
2016-06-06T10:14:33.109Z,264
2016-06-06T10:14:43.906Z,258
2016-06-06T10:14:52.828Z,258
2016-06-06T10:15:03.000Z,258
2016-06-06T10:15:13.002Z,264
2016-06-06T10:15:23.002Z,258
2016-06-06T10:15:32.861Z,258
2016-06-06T10:15:42.861Z,264
2016-06-06T10:15:53.017Z,264
2016-06-06T10:16:02.861Z,264
2016-06-06T10:16:13.036Z,264
2016-06-06T10:16:23.036Z,264
2016-06-06T10:16:33.051Z,264
2016-06-06T10:16:43.051Z,264
2016-06-06T10:16:53.051Z,264
2016-06-06T10:17:03.051Z,264
2016-06-06T10:17:12.913Z,264
2016-06-06T10:17:23.069Z,264
2016-06-06T10:17:33.069Z,270
2016-06-06T10:17:43.085Z,270
2016-06-06T10:17:53.085Z,270
2016-06-06T10:18:03.085Z,270
2016-06-06T10:18:13.103Z,270
2016-06-06T10:18:23.103Z,270
2016-06-06T10:18:33.119Z,270
2016-06-06T10:18:43.119Z,270
2016-06-06T10:18:53.119Z,270
2016-06-06T10:19:03.119Z,270
2016-06-06T10:19:13.138Z,270
2016-06-06T10:19:23.138Z,270
2016-06-06T10:19:33.153Z,270
2016-06-06T10:19:43.153Z,270
2016-06-06T10:19:53.153Z,270
2016-06-06T10:20:03.153Z,275
2016-06-06T10:20:13.203Z,275
2016-06-06T10:20:23.172Z,275
2016-06-06T10:20:33.172Z,275
2016-06-06T10:20:43.187Z,275
2016-06-06T10:20:53.187Z,275
2016-06-06T10:21:03.187Z,275
2016-06-06T10:21:13.205Z,275
2016-06-06T10:21:23.205Z,275
2016-06-06T10:21:33.205Z,275
2016-06-06T10:21:43.064Z,275
2016-06-06T10:21:53.221Z,275
2016-06-06T10:22:03.221Z,275
2016-06-06T10:22:13.224Z,275
2016-06-06T10:22:23.239Z,275
2016-06-06T10:22:33.239Z,275
2016-06-06T10:22:43.239Z,275
2016-06-06T10:22:53.255Z,275
2016-06-06T10:23:03.255Z,275
2016-06-06T10:23:13.258Z,275
2016-06-06T10:23:23.274Z,275
2016-06-06T10:23:33.274Z,275
2016-06-06T10:23:43.289Z,275
2016-06-06T10:23:53.289Z,275
2016-06-06T10:24:03.305Z,281
2016-06-06T10:24:13.291Z,281
2016-06-06T10:24:23.307Z,281
2016-06-06T10:24:33.307Z,281
2016-06-06T10:24:43.307Z,281
2016-06-06T10:24:53.322Z,281
2016-06-06T10:25:03.322Z,281
2016-06-06T10:25:13.341Z,281
2016-06-06T10:25:23.341Z,281
2016-06-06T10:25:33.341Z,281
2016-06-06T10:25:43.341Z,281
2016-06-06T10:25:53.357Z,281
2016-06-06T10:26:03.357Z,281
2016-06-06T10:26:13.360Z,281
2016-06-06T10:26:23.360Z,281
2016-06-06T10:26:33.375Z,281
2016-06-06T10:26:43.391Z,281
2016-06-06T10:26:53.391Z,281
2016-06-06T10:27:03.391Z,281
2016-06-06T10:27:13.393Z,281
2016-06-06T10:27:23.409Z,275
2016-06-06T10:27:33.409Z,275
2016-06-06T10:27:43.409Z,275
2016-06-06T10:27:53.424Z,275
2016-06-06T10:28:03.424Z,275
2016-06-06T10:28:13.286Z,275
2016-06-06T10:28:23.426Z,281
2016-06-06T10:28:33.457Z,281
2016-06-06T10:28:43.457Z,281
2016-06-06T10:28:54.004Z,281
2016-06-06T10:29:03.317Z,281
2016-06-06T10:29:13.540Z,281
2016-06-06T10:29:24.086Z,281
2016-06-06T10:29:33.477Z,281
2016-06-06T10:29:44.024Z,281
2016-06-06T10:29:53.915Z,281
2016-06-06T10:30:03.993Z,281
2016-06-06T10:30:13.495Z,281
2016-06-06T10:30:23.510Z,281
2016-06-06T10:30:33.510Z,281
2016-06-06T10:30:43.370Z,286
2016-06-06T10:30:53.510Z,281
2016-06-06T10:31:03.526Z,286
2016-06-06T10:31:13.529Z,286
2016-06-06T10:31:23.545Z,286
2016-06-06T10:31:33.576Z,286
2016-06-06T10:31:43.560Z,286
2016-06-06T10:31:53.560Z,286
2016-06-06T10:32:03.560Z,286
2016-06-06T10:32:13.562Z,286
2016-06-06T10:32:23.562Z,286
2016-06-06T10:32:33.578Z,286
2016-06-06T10:32:43.578Z,286
2016-06-06T10:32:53.593Z,286
2016-06-06T10:33:03.593Z,292
2016-06-06T10:33:13.612Z,292
2016-06-06T10:33:23.612Z,292
2016-06-06T10:33:33.612Z,292
2016-06-06T10:33:43.612Z,292
2016-06-06T10:33:53.643Z,292
2016-06-06T10:34:03.628Z,292
2016-06-06T10:34:13.646Z,292
2016-06-06T10:34:23.631Z,292
2016-06-06T10:34:33.646Z,292
2016-06-06T10:34:43.646Z,292
2016-06-06T10:34:53.506Z,292
2016-06-06T10:35:03.662Z,298
2016-06-06T10:35:13.665Z,298
2016-06-06T10:35:23.665Z,298
2016-06-06T10:35:33.524Z,298
2016-06-06T10:35:43.681Z,298
2016-06-06T10:35:53.524Z,298
2016-06-06T10:36:03.696Z,298
2016-06-06T10:36:13.714Z,298
2016-06-06T10:36:23.714Z,298
2016-06-06T10:36:33.714Z,298
2016-06-06T10:36:43.558Z,298
2016-06-06T10:36:53.729Z,298
2016-06-06T10:37:03.729Z,298
2016-06-06T10:37:13.732Z,298
2016-06-06T10:37:23.748Z,298
2016-06-06T10:37:33.607Z,298
2016-06-06T10:37:43.748Z,298
2016-06-06T10:37:53.748Z,298
2016-06-06T10:38:03.779Z,298
2016-06-06T10:38:13.766Z,298
2016-06-06T10:38:23.781Z,303
2016-06-06T10:38:33.781Z,303
2016-06-06T10:38:43.781Z,303
2016-06-06T10:38:53.797Z,303
2016-06-06T10:39:03.797Z,303
2016-06-06T10:39:13.817Z,303
2016-06-06T10:39:23.817Z,303
2016-06-06T10:39:33.817Z,303
2016-06-06T10:39:43.676Z,309
2016-06-06T10:39:53.832Z,309
2016-06-06T10:40:03.676Z,309
2016-06-06T10:40:13.834Z,309
2016-06-06T10:40:23.850Z,309
2016-06-06T10:40:33.850Z,309
2016-06-06T10:40:43.850Z,309
2016-06-06T10:40:53.865Z,309
2016-06-06T10:41:03.865Z,309
2016-06-06T10:41:13.868Z,309
2016-06-06T10:41:23.884Z,309
2016-06-06T10:41:33.884Z,315
2016-06-06T10:41:43.728Z,315
2016-06-06T10:41:53.900Z,315
2016-06-06T10:42:03.900Z,315
2016-06-06T10:42:13.902Z,315
2016-06-06T10:42:23.902Z,320
2016-06-06T10:42:33.917Z,320
2016-06-06T10:42:43.933Z,326
2016-06-06T10:42:53.933Z,326
2016-06-06T10:43:03.933Z,320
2016-06-06T10:43:13.936Z,320
2016-06-06T10:43:23.936Z,320
2016-06-06T10:43:33.952Z,320
2016-06-06T10:43:43.967Z,320
2016-06-06T10:43:53.967Z,320
2016-06-06T10:44:04.358Z,326
2016-06-06T10:44:14.111Z,326
2016-06-06T10:44:24.095Z,326
2016-06-06T10:44:33.986Z,326
2016-06-06T10:44:43.845Z,326
2016-06-06T10:44:54.298Z,326
2016-06-06T10:45:04.001Z,331
2016-06-06T10:45:14.020Z,331
2016-06-06T10:45:24.004Z,331
2016-06-06T10:45:34.020Z,331
2016-06-06T10:45:43.864Z,331
2016-06-06T10:45:54.020Z,331
2016-06-06T10:46:04.036Z,331
2016-06-06T10:46:14.038Z,331
2016-06-06T10:46:24.038Z,331
2016-06-06T10:46:34.053Z,331
2016-06-06T10:46:44.053Z,331
2016-06-06T10:46:54.069Z,337
2016-06-06T10:47:04.053Z,331
2016-06-06T10:47:14.072Z,331
2016-06-06T10:47:24.072Z,331
2016-06-06T10:47:34.088Z,331
2016-06-06T10:47:44.088Z,331
2016-06-06T10:47:54.103Z,331
2016-06-06T10:48:04.088Z,331
2016-06-06T10:48:14.106Z,331
2016-06-06T10:48:24.106Z,337
2016-06-06T10:48:34.122Z,337
2016-06-06T10:48:44.122Z,337
2016-06-06T10:48:54.153Z,337
2016-06-06T10:49:04.122Z,337
2016-06-06T10:49:14.139Z,337
2016-06-06T10:49:24.139Z,337
2016-06-06T10:49:36.952Z,337
2016-06-06T10:49:44.155Z,337
2016-06-06T10:49:54.171Z,343
2016-06-06T10:50:04.171Z,343
2016-06-06T10:50:14.174Z,337
2016-06-06T10:50:24.174Z,343
2016-06-06T10:50:34.189Z,343
2016-06-06T10:50:44.189Z,343
2016-06-06T10:50:54.033Z,343
2016-06-06T10:51:04.205Z,343
2016-06-06T10:51:14.052Z,343
2016-06-06T10:51:24.208Z,343
2016-06-06T10:51:34.224Z,343
2016-06-06T10:51:44.239Z,343
2016-06-06T10:51:54.224Z,343
2016-06-06T10:52:04.239Z,343
2016-06-06T10:52:14.242Z,343
2016-06-06T10:52:24.258Z,343
2016-06-06T10:52:34.242Z,343
2016-06-06T10:52:44.258Z,343
2016-06-06T10:52:54.258Z,343
2016-06-06T10:53:04.273Z,343
2016-06-06T10:53:14.275Z,343
2016-06-06T10:53:24.291Z,348
2016-06-06T10:53:34.275Z,348
2016-06-06T10:53:43.979Z,348
2016-06-06T10:53:54.307Z,348
2016-06-06T10:54:04.307Z,348
2016-06-06T10:54:14.310Z,348
2016-06-06T10:54:24.325Z,348
2016-06-06T10:54:34.169Z,354
2016-06-06T10:54:44.169Z,354
2016-06-06T10:54:54.325Z,354
2016-06-06T10:55:04.341Z,354
2016-06-06T10:55:14.344Z,354
2016-06-06T10:55:24.344Z,354
2016-06-06T10:55:34.203Z,354
2016-06-06T10:55:44.360Z,354
2016-06-06T10:55:54.375Z,354
2016-06-06T10:56:04.375Z,348
2016-06-06T10:56:14.377Z,348
2016-06-06T10:56:24.393Z,354
2016-06-06T10:56:34.393Z,354
2016-06-06T10:56:44.393Z,354
2016-06-06T10:56:54.408Z,354
2016-06-06T10:57:04.408Z,354
2016-06-06T10:57:14.411Z,354
2016-06-06T10:57:24.411Z,354
2016-06-06T10:57:34.443Z,354
2016-06-06T10:57:44.427Z,354